EST,Max TemperatureF,Mean TemperatureF,Min TemperatureF,Max Dew PointF,MeanDew PointF,Min DewpointF,Max Humidity, Mean Humidity, Min Humidity, Max Sea Level PressureIn, Mean Sea Level PressureIn, Min Sea Level PressureIn, Max VisibilityMiles, Mean VisibilityMiles, Min VisibilityMiles, Max Wind SpeedMPH, Mean Wind SpeedMPH, Max Gust SpeedMPH,PrecipitationIn, CloudCover, Events, WindDirDegrees
2014-1-1,19,16,12,3,-4,-18,62,43,22,30.33,30.26,30.18,7,2,1,16,12,,0.00,8,Snow,37
2014-1-2,15,9,3,14,3,-6,93,70,53,30.39,30.19,30.10,10,5,1,18,16,25,0.00,6,Snow,11
2014-1-3,14,2,-9,4,-3,-15,78,64,51,30.48,30.33,30.08,10,10,7,98,15,29,0.00,2,,183
2014-1-4,32,23,14,27,19,5,92,73,54,30.05,29.97,29.90,10,6,1,24,14,31,0.10,5,Snow,198
2014-1-5,30,24,17,27,22,13,92,85,77,30.02,29.89,29.74,2,2,0,24,9,30,0.18,8,Fog-Snow,6
2014-1-6,17,3,-12,12,-5,-18,88,79,69,30.19,29.98,29.76,9,2,0,26,18,38,T,8,Snow,261
2014-1-7,0,-5,-11,-8,-13,-17,79,69,59,30.37,30.25,30.10,10,6,1,22,15,28,T,6,Snow,218
2014-1-8,18,3,-13,9,-2,-13,88,78,67,30.55,30.40,30.29,10,7,1,12,5,13,T,4,Snow,203
2014-1-9,22,12,2,19,10,2,91,79,67,30.58,30.43,30.23,10,7,2,9,5,14,T,7,Snow,143
2014-1-10,41,32,22,39,29,19,100,93,86,30.25,30.04,29.61,10,2,0,21,7,25,0.36,8,Fog-Rain-Snow,165
2014-1-11,41,37,33,39,35,27,93,84,75,29.72,29.50,29.39,10,4,0,21,12,28,0.06,8,Fog-Rain-Snow,233
2014-1-12,38,34,30,29,27,25,85,78,70,29.95,29.81,29.70,10,10,9,24,13,32,0.00,4,,217
2014-1-13,44,40,35,33,31,29,82,71,60,29.73,29.64,29.55,10,10,10,22,11,28,0.00,3,,230
2014-1-14,36,30,23,30,24,16,89,73,56,29.77,29.71,29.64,10,7,1,30,12,37,0.01,6,Rain-Snow,218
2014-1-15,26,20,13,20,17,8,88,78,67,30.05,29.91,29.73,10,4,1,23,12,29,T,7,Snow,264
2014-1-16,30,22,14,27,19,8,85,79,73,29.94,29.68,29.56,10,6,1,22,15,28,T,8,Snow,188
2014-1-17,29,22,14,23,14,6,84,76,67,29.97,29.82,29.61,10,9,4,18,10,23,T,8,Snow,252
2014-1-18,19,16,12,14,11,9,92,80,67,29.95,29.90,29.80,10,7,2,17,7,21,0.01,7,Snow,183
2014-1-19,35,23,10,27,17,7,92,80,68,29.84,29.69,29.52,10,9,5,28,13,36,0.00,4,,225
2014-1-20,37,25,12,29,19,3,78,71,63,30.08,29.82,29.49,10,9,3,24,10,29,T,8,Snow,346
2014-1-21,12,7,2,3,-5,-8,70,58,46,30.27,30.21,30.09,10,10,10,17,8,29,0.00,4,,27
2014-1-22,12,10,7,8,3,-4,84,74,63,30.21,30.00,29.88,10,4,1,20,10,25,0.01,8,Snow,210
2014-1-23,15,9,2,7,4,-2,87,71,55,30.53,30.25,29.96,10,5,1,17,7,21,0.03,6,Snow,287
2014-1-24,19,6,-6,16,2,-12,88,48,7,30.48,30.11,29.50,10,6,1,32,19,40,0.18,6,Snow,217
2014-1-25,29,20,10,25,14,4,92,75,58,29.82,29.49,29.31,10,2,0,31,15,38,0.10,8,Fog-Snow,293
2014-1-26,28,17,6,23,12,1,88,80,71,29.80,29.54,29.37,10,5,0,24,11,35,0.04,8,Fog-Snow,227
2014-1-27,22,8,-6,16,1,-10,91,80,69,30.37,30.02,29.50,9,2,0,30,13,39,0.02,8,Fog-Snow,284
2014-1-28,4,-4,-13,-5,-11,-17,86,73,59,30.42,30.32,30.17,10,7,2,17,11,23,T,5,Snow,216
2014-1-29,17,8,-2,4,-3,-8,79,65,51,30.21,30.17,30.10,10,8,2,22,12,28,0.00,3,Snow,218
2014-1-30,31,26,21,26,13,1,88,73,57,30.11,29.89,29.72,10,8,0,29,16,38,0.02,4,Snow,196
2014-1-31,32,28,23,27,20,16,85,74,63,30.16,30.05,29.87,10,10,3,17,7,23,T,7,Snow,272